Time;durP1;ratioP1;P1;durP2;ratioP2;P2;SDS_P1;SDS_P2;PMS_P1;PMS_P2;Temp;Humidity;BMP_temperature;BMP_pressure;BME280_temperature;BME280_humidity;BME280_pressure;Samples;Min_cycle;Max_cycle;Signal;HPM_P1;HPM_P2
2021/12/25 00:00:46;;;;;;;1.75;1.48;;;-1.40;99.90;;;;;;5045168;28;20092;-83
2021/12/25 00:03:11;;;;;;;1.10;1.10;;;-1.40;99.90;;;;;;5036454;28;20041;-84
2021/12/25 00:05:42;;;;;;;1.00;1.00;;;-1.50;99.90;;;;;;5066101;28;20110;-84
2021/12/25 00:08:09;;;;;;;1.00;1.00;;;-1.40;99.90;;;;;;5045142;28;20041;-83
2021/12/25 00:10:35;;;;;;;0.88;0.88;;;-1.50;99.90;;;;;;5043984;28;20496;-84
2021/12/25 00:13:01;;;;;;;0.93;0.93;;;-0.80;99.90;;;;;;5046937;28;20045;-84
2021/12/25 00:15:27;;;;;;;1.52;1.42;;;-1.10;99.90;;;;;;5061351;28;20515;-84
2021/12/25 00:17:52;;;;;;;1.08;1.08;;;-1.60;99.90;;;;;;5043298;28;20033;-83
2021/12/25 00:20:18;;;;;;;0.90;0.90;;;-1.50;99.90;;;;;;5060804;28;20123;-84
2021/12/25 00:22:44;;;;;;;1.00;1.00;;;-1.60;99.90;;;;;;5060291;28;20139;-84
2021/12/25 00:25:10;;;;;;;1.10;1.10;;;-1.70;99.90;;;;;;5060841;28;20041;-85
2021/12/25 00:27:45;;;;;;;1.10;1.10;;;-1.80;99.90;;;;;;5060446;28;20047;-84
2021/12/25 00:30:18;;;;;;;1.10;1.10;;;-1.80;99.90;;;;;;5050766;28;20029;-83
2021/12/25 00:33:07;;;;;;;1.13;1.10;;;-1.80;99.90;;;;;;5058839;28;20179;-84
2021/12/25 00:35:33;;;;;;;0.95;0.95;;;-1.90;99.90;;;;;;5058505;28;20036;-85
2021/12/25 00:37:58;;;;;;;0.90;0.90;;;-1.60;99.90;;;;;;5049717;28;20073;-85
2021/12/25 00:40:24;;;;;;;0.90;0.90;;;-1.90;99.90;;;;;;5041851;28;20102;-85
2021/12/25 00:42:50;;;;;;;0.90;0.90;;;-1.90;99.90;;;;;;5058329;28;20045;-85
2021/12/25 00:45:16;;;;;;;1.17;1.15;;;-2.00;99.90;;;;;;5058031;28;20094;-85
2021/12/25 00:47:42;;;;;;;1.77;1.20;;;-2.00;99.90;;;;;;5042696;28;20036;-85
2021/12/25 00:50:09;;;;;;;0.90;0.90;;;-2.00;99.90;;;;;;5057946;28;20041;-84
2021/12/25 00:52:34;;;;;;;1.10;1.10;;;-2.10;99.90;;;;;;5059425;28;20138;-84
2021/12/25 00:55:01;;;;;;;1.42;1.35;;;-2.00;99.90;;;;;;5043903;28;20148;-84
2021/12/25 00:57:27;;;;;;;1.20;1.13;;;-2.10;99.90;;;;;;5064975;28;20092;-84
2021/12/25 00:59:52;;;;;;;1.50;1.40;;;-2.10;99.90;;;;;;5075465;28;20044;-85
2021/12/25 01:02:18;;;;;;;1.10;1.10;;;-2.20;99.90;;;;;;5040972;28;20037;-83
2021/12/25 01:04:44;;;;;;;1.10;1.10;;;-2.20;99.90;;;;;;5056662;28;20214;-85
2021/12/25 01:07:09;;;;;;;1.00;1.00;;;-2.30;99.90;;;;;;5069566;28;20120;-84
2021/12/25 01:09:35;;;;;;;1.10;1.10;;;-2.30;99.90;;;;;;5056546;28;20143;-85
2021/12/25 01:12:01;;;;;;;1.02;1.02;;;-2.30;99.90;;;;;;5042678;28;20132;-85
2021/12/25 01:30:47;;;;;;;1.33;1.23;;;-2.50;99.90;;;;;;5032535;28;20456;-85
2021/12/25 01:49:36;;;;;;;0.90;0.90;;;-2.40;99.90;;;;;;5055439;28;20543;-85
2021/12/25 01:52:03;;;;;;;0.90;0.90;;;-2.80;99.90;;;;;;5044913;28;20030;-84
2021/12/25 01:54:29;;;;;;;1.30;1.20;;;-2.80;99.90;;;;;;5041004;28;20064;-84
2021/12/25 01:56:54;;;;;;;1.00;1.00;;;-2.80;99.90;;;;;;5060886;28;20108;-85
2021/12/25 01:59:20;;;;;;;1.00;1.00;;;-2.90;99.90;;;;;;5058428;28;20073;-84
2021/12/25 02:01:45;;;;;;;1.02;1.02;;;-2.90;99.90;;;;;;5054893;28;20048;-85
2021/12/25 02:04:11;;;;;;;1.27;1.20;;;-2.90;99.90;;;;;;5065208;28;20048;-85
2021/12/25 02:06:37;;;;;;;1.17;1.13;;;-3.00;99.90;;;;;;5056257;28;20099;-86
2021/12/25 02:09:05;;;;;;;1.02;1.02;;;-3.00;99.90;;;;;;5054063;28;20040;-85
2021/12/25 02:11:31;;;;;;;1.13;1.13;;;-3.00;99.90;;;;;;5048920;28;20048;-84
2021/12/25 02:13:58;;;;;;;1.30;1.20;;;-3.00;99.90;;;;;;5074623;28;20080;-84
2021/12/25 02:16:29;;;;;;;1.10;1.10;;;-3.00;99.90;;;;;;5053116;28;20056;-84
2021/12/25 02:19:00;;;;;;;1.00;1.00;;;-3.00;99.90;;;;;;5056933;28;20482;-85
2021/12/25 02:21:35;;;;;;;1.52;1.42;;;-3.10;99.90;;;;;;5054793;28;20060;-85
2021/12/25 02:24:00;;;;;;;1.20;1.20;;;-3.10;99.90;;;;;;5042290;28;20037;-84
2021/12/25 02:26:26;;;;;;;1.40;1.30;;;-3.10;99.90;;;;;;5042052;28;20055;-85
2021/12/25 02:28:53;;;;;;;1.02;1.02;;;-3.20;99.90;;;;;;5059020;28;20037;-85
2021/12/25 02:31:20;;;;;;;1.10;1.10;;;-3.20;99.90;;;;;;5041063;28;20037;-84
2021/12/25 02:33:46;;;;;;;1.05;1.05;;;-3.20;99.90;;;;;;5059465;28;20053;-83
2021/12/25 02:36:13;;;;;;;1.10;1.10;;;-3.20;99.90;;;;;;5071739;28;20048;-83
2021/12/25 02:38:39;;;;;;;1.40;1.30;;;-3.50;99.90;;;;;;5079735;28;20125;-83
2021/12/25 02:41:05;;;;;;;1.30;1.20;;;-3.20;99.90;;;;;;5062130;28;20165;-84
2021/12/25 02:43:32;;;;;;;1.20;1.10;;;-3.30;99.90;;;;;;5046162;28;20037;-84
2021/12/25 02:46:02;;;;;;;1.00;1.00;;;-3.30;99.90;;;;;;5055513;28;20049;-83
2021/12/25 02:48:28;;;;;;;1.30;1.20;;;-3.30;99.90;;;;;;5052716;28;20067;-84
2021/12/25 02:50:53;;;;;;;1.00;1.00;;;-3.30;99.90;;;;;;5044262;28;20124;-83
2021/12/25 02:53:19;;;;;;;1.30;1.20;;;-3.40;99.90;;;;;;5056403;28;20187;-83
2021/12/25 02:55:46;;;;;;;1.10;1.10;;;-3.40;99.90;;;;;;5062185;28;20064;-84
2021/12/25 02:58:12;;;;;;;1.08;1.08;;;-3.40;99.90;;;;;;5044879;28;20041;-84
2021/12/25 03:00:43;;;;;;;1.30;1.20;;;-3.50;99.90;;;;;;5059589;28;20056;-84
2021/12/25 03:03:09;;;;;;;1.10;1.10;;;-3.50;99.90;;;;;;5057806;28;20029;-84
2021/12/25 03:05:35;;;;;;;1.30;1.20;;;-3.50;99.90;;;;;;5062580;28;20079;-84
2021/12/25 03:08:03;;;;;;;1.17;1.10;;;-3.50;99.90;;;;;;5072233;28;20050;-83
2021/12/25 03:10:31;;;;;;;1.10;1.10;;;-3.50;99.90;;;;;;5045142;28;20152;-84
2021/12/25 03:13:18;;;;;;;1.30;1.20;;;-3.60;99.90;;;;;;5058243;28;20037;-84
2021/12/25 03:15:46;;;;;;;1.30;1.20;;;-3.60;99.90;;;;;;5068645;28;20045;-84
2021/12/25 03:18:17;;;;;;;1.30;1.20;;;-3.60;99.90;;;;;;5062505;28;20393;-84
2021/12/25 03:20:45;;;;;;;1.40;1.30;;;-3.60;99.90;;;;;;5065286;28;20192;-84
2021/12/25 03:23:23;;;;;;;2.30;2.10;;;-3.60;99.90;;;;;;5065491;28;20037;-84
2021/12/25 03:25:50;;;;;;;1.10;1.10;;;-3.70;99.90;;;;;;5073897;28;20043;-84
2021/12/25 03:28:19;;;;;;;1.33;1.23;;;-3.70;99.90;;;;;;5053135;28;20186;-84
2021/12/25 03:30:45;;;;;;;1.20;1.10;;;-3.80;99.90;;;;;;5058213;28;20147;-84
2021/12/25 03:33:21;;;;;;;1.20;1.10;;;-3.80;99.90;;;;;;5055646;28;20041;-84
2021/12/25 03:35:48;;;;;;;1.10;1.10;;;-3.80;99.90;;;;;;5059852;28;20118;-84
2021/12/25 03:38:15;;;;;;;1.10;1.10;;;-3.70;99.90;;;;;;5072042;28;20041;-84
2021/12/25 03:40:42;;;;;;;1.10;1.10;;;-3.80;99.90;;;;;;5060600;28;20064;-83
2021/12/25 03:43:09;;;;;;;1.30;1.20;;;-3.90;99.90;;;;;;5061638;28;20041;-85
2021/12/25 03:45:35;;;;;;;1.30;1.20;;;-3.80;99.90;;;;;;5054059;28;20049;-84
2021/12/25 03:48:16;;;;;;;1.10;1.10;;;-3.30;99.90;;;;;;5057980;28;20040;-84
2021/12/25 03:58:56;;;;;;;5.45;2.30;;;-4.00;99.90;;;;;;5045727;28;19917;-83
2021/12/25 04:01:44;;;;;;;1.40;1.30;;;-4.00;99.90;;;;;;5058137;28;20371;-84
2021/12/25 04:04:18;;;;;;;1.10;1.10;;;-4.10;99.90;;;;;;5054298;28;20051;-84
2021/12/25 04:09:41;;;;;;;1.20;1.15;;;-4.20;99.90;;;;;;5043260;28;20099;-83
2021/12/25 04:12:10;;;;;;;1.33;1.23;;;-4.10;99.90;;;;;;5043593;28;20045;-84
2021/12/25 04:14:37;;;;;;;1.90;1.80;;;-4.20;99.90;;;;;;5040133;28;20068;-84
2021/12/25 04:17:03;;;;;;;1.30;1.20;;;-4.20;99.90;;;;;;5055908;28;20029;-83
2021/12/25 04:19:29;;;;;;;1.30;1.20;;;-4.20;99.90;;;;;;5055369;28;20474;-83
2021/12/25 04:22:02;;;;;;;1.13;1.10;;;-4.20;99.90;;;;;;5043427;28;20041;-84
2021/12/25 04:24:31;;;;;;;0.88;0.88;;;-4.30;99.90;;;;;;5046436;28;20082;-84
2021/12/25 04:26:57;;;;;;;1.30;1.20;;;-4.30;99.90;;;;;;5061098;28;20070;-84
2021/12/25 05:02:11;;;;;;;1.10;1.10;;;-4.50;99.90;;;;;;5058975;28;20049;-84
2021/12/25 05:04:43;;;;;;;1.13;1.10;;;-4.60;99.90;;;;;;5060032;28;20056;-83
2021/12/25 05:07:10;;;;;;;1.10;1.10;;;-4.60;99.90;;;;;;5054990;28;20045;-83
2021/12/25 05:09:35;;;;;;;1.40;1.30;;;-4.60;99.90;;;;;;5036967;28;20484;-83
2021/12/25 05:12:01;;;;;;;1.35;1.25;;;-4.70;99.90;;;;;;5058624;28;20112;-85
2021/12/25 05:14:27;;;;;;;1.30;1.20;;;-4.70;99.90;;;;;;5042996;28;20056;-84
2021/12/25 05:16:52;;;;;;;1.30;1.20;;;-4.80;99.90;;;;;;5053099;28;20047;-83
2021/12/25 05:19:19;;;;;;;1.25;1.15;;;-4.80;99.90;;;;;;5053152;28;20044;-83
2021/12/25 05:21:44;;;;;;;1.40;1.30;;;-4.80;99.90;;;;;;5047538;28;20125;-84
2021/12/25 05:24:10;;;;;;;1.05;1.05;;;-4.80;99.90;;;;;;5042427;28;20461;-83
2021/12/25 05:26:35;;;;;;;1.02;1.00;;;-4.80;99.90;;;;;;5042224;28;20045;-83
2021/12/25 05:29:02;;;;;;;1.35;1.25;;;-4.80;99.90;;;;;;5075933;28;20053;-82
2021/12/25 05:31:30;;;;;;;2.35;1.83;;;-4.80;99.90;;;;;;5055180;28;20621;-84
2021/12/25 05:33:56;;;;;;;1.33;1.23;;;-4.90;99.90;;;;;;5040397;28;20586;-83
2021/12/25 05:36:24;;;;;;;1.40;1.30;;;-4.90;99.90;;;;;;5060821;28;20529;-82
2021/12/25 05:38:51;;;;;;;1.55;1.45;;;-4.90;99.90;;;;;;5072483;28;20067;-82
2021/12/25 05:41:17;;;;;;;1.40;1.30;;;-4.90;99.90;;;;;;5054181;28;20053;-82
2021/12/25 05:43:42;;;;;;;1.50;1.40;;;-4.90;99.90;;;;;;5059429;28;20060;-83
2021/12/25 05:46:08;;;;;;;1.40;1.30;;;-4.90;99.90;;;;;;5069631;28;20041;-83
2021/12/25 05:48:35;;;;;;;1.27;1.17;;;-5.00;99.90;;;;;;5058598;28;20206;-83
2021/12/25 05:51:03;;;;;;;1.20;1.15;;;-5.00;99.90;;;;;;5058052;28;20094;-84
2021/12/25 05:53:29;;;;;;;1.33;1.23;;;-5.00;99.90;;;;;;5063533;28;20377;-83
2021/12/25 05:55:54;;;;;;;1.50;1.40;;;-5.00;99.90;;;;;;5058630;28;20104;-84
2021/12/25 05:58:20;;;;;;;1.38;1.27;;;-5.00;99.90;;;;;;5042593;28;20496;-84
2021/12/25 06:00:46;;;;;;;1.50;1.40;;;-5.00;99.90;;;;;;5057449;28;20064;-84
2021/12/25 06:03:11;;;;;;;1.33;1.23;;;-5.00;99.90;;;;;;5056012;28;20148;-83
2021/12/25 06:05:37;;;;;;;1.35;1.25;;;-5.00;99.90;;;;;;5058002;28;20067;-83
2021/12/25 06:08:03;;;;;;;1.40;1.30;;;-4.80;99.90;;;;;;5053240;28;20064;-83
2021/12/25 06:10:29;;;;;;;1.27;1.17;;;-5.10;99.90;;;;;;5049185;28;20063;-84
2021/12/25 06:12:56;;;;;;;1.45;1.35;;;-5.20;99.90;;;;;;5058747;28;20049;-82
2021/12/25 06:15:22;;;;;;;1.52;1.42;;;-5.10;99.90;;;;;;5050998;28;20049;-83
2021/12/25 06:17:48;;;;;;;1.30;1.20;;;-5.10;99.90;;;;;;5055759;28;20077;-83
2021/12/25 06:20:14;;;;;;;1.38;1.27;;;-5.20;99.90;;;;;;5058187;28;20114;-84
2021/12/25 06:22:40;;;;;;;1.30;1.20;;;-5.10;99.90;;;;;;5069493;28;20075;-82
2021/12/25 06:25:06;;;;;;;1.40;1.30;;;-5.10;99.90;;;;;;5066060;28;20069;-82
2021/12/25 06:27:32;;;;;;;1.40;1.30;;;-5.10;99.90;;;;;;5056306;28;20037;-82
2021/12/25 06:29:58;;;;;;;1.45;1.35;;;-5.10;99.90;;;;;;5049775;28;20086;-81
2021/12/25 06:32:23;;;;;;;1.10;1.10;;;-5.10;99.90;;;;;;5038526;28;20100;-81
2021/12/25 06:34:49;;;;;;;1.30;1.20;;;-5.20;99.90;;;;;;5053952;28;20055;-82
2021/12/25 06:37:15;;;;;;;1.30;1.20;;;-5.10;99.90;;;;;;5055596;28;20041;-83
2021/12/25 06:39:41;;;;;;;1.30;1.20;;;-5.20;99.90;;;;;;5042036;28;20176;-81
2021/12/25 06:42:08;;;;;;;1.30;1.20;;;-5.20;99.90;;;;;;5057465;28;20037;-82
2021/12/25 06:44:34;;;;;;;1.40;1.30;;;-5.20;99.90;;;;;;5058313;28;20048;-83
2021/12/25 06:47:00;;;;;;;1.75;1.65;;;-5.30;99.90;;;;;;5050191;28;20049;-81
2021/12/25 06:49:27;;;;;;;1.10;1.08;;;-5.20;99.90;;;;;;5058839;28;20091;-81
2021/12/25 06:51:53;;;;;;;1.27;1.17;;;-5.30;99.90;;;;;;5054939;28;20061;-82
2021/12/25 06:54:19;;;;;;;1.35;1.25;;;;;;;;;;5074222;28;20134;-82
2021/12/25 06:56:46;;;;;;;1.52;1.42;;;-5.30;99.90;;;;;;5056528;28;20045;-82
2021/12/25 06:59:12;;;;;;;1.40;1.30;;;-5.40;99.90;;;;;;5051762;28;20048;-82
2021/12/25 07:01:38;;;;;;;1.35;1.25;;;-5.40;99.90;;;;;;5048555;28;20156;-83
2021/12/25 07:04:06;;;;;;;1.40;1.30;;;-5.40;99.90;;;;;;5045663;28;20045;-82
2021/12/25 07:06:36;;;;;;;1.02;1.02;;;-5.40;99.90;;;;;;5057475;28;20041;-82
2021/12/25 07:09:05;;;;;;;1.35;1.25;;;-5.40;99.90;;;;;;5060035;28;20052;-82
2021/12/25 07:11:30;;;;;;;1.50;1.40;;;-5.40;99.90;;;;;;5048853;28;20057;-82
2021/12/25 07:13:57;;;;;;;1.40;1.30;;;-5.10;99.90;;;;;;5057766;28;20056;-83
2021/12/25 07:16:22;;;;;;;1.33;1.23;;;-5.30;99.90;;;;;;5056295;28;20182;-83
2021/12/25 07:18:48;;;;;;;1.40;1.30;;;-5.30;99.90;;;;;;5056995;28;20048;-83
2021/12/25 07:21:13;;;;;;;1.33;1.23;;;-5.30;99.90;;;;;;5058367;28;20040;-83
2021/12/25 07:23:39;;;;;;;1.10;1.10;;;-5.30;99.90;;;;;;5037995;28;20052;-82
2021/12/25 07:26:05;;;;;;;1.50;1.40;;;-5.30;99.90;;;;;;5061898;28;20483;-83
2021/12/25 07:28:31;;;;;;;1.42;1.33;;;-5.30;99.90;;;;;;5063791;28;20105;-83
2021/12/25 07:31:00;;;;;;;1.25;1.17;;;-5.30;99.90;;;;;;5057781;28;20029;-83
2021/12/25 07:33:26;;;;;;;1.45;1.35;;;-5.30;99.90;;;;;;5060878;28;20181;-83
2021/12/25 07:35:53;;;;;;;1.50;1.40;;;-5.20;99.90;;;;;;5058795;28;20044;-82
2021/12/25 07:38:20;;;;;;;1.30;1.20;;;-5.20;99.90;;;;;;5056925;28;20120;-83
2021/12/25 07:40:46;;;;;;;1.50;1.40;;;-5.20;99.90;;;;;;5060586;28;20064;-83
2021/12/25 07:43:12;;;;;;;2.85;2.65;;;-5.20;99.90;;;;;;5062104;28;20055;-83
2021/12/25 07:45:37;;;;;;;1.35;1.25;;;-5.30;99.90;;;;;;5056986;28;20037;-83
2021/12/25 07:48:04;;;;;;;1.40;1.30;;;-5.30;99.90;;;;;;5058247;28;20055;-83
2021/12/25 07:50:33;;;;;;;1.67;1.58;;;-5.20;99.90;;;;;;5059679;28;20082;-83
2021/12/25 07:52:59;;;;;;;1.40;1.30;;;-5.20;99.90;;;;;;5077571;28;20060;-82
2021/12/25 07:55:29;;;;;;;1.50;1.40;;;-5.30;99.90;;;;;;5041178;28;20339;-83
2021/12/25 07:57:56;;;;;;;1.30;1.20;;;-5.30;99.90;;;;;;5072409;28;20412;-82
2021/12/25 08:00:21;;;;;;;1.33;1.23;;;-5.20;99.90;;;;;;5052527;28;20041;-82
2021/12/25 08:02:47;;;;;;;1.40;1.30;;;;;;;;;;5052765;28;20053;-82
2021/12/25 08:05:14;;;;;;;1.30;1.20;;;-5.20;99.90;;;;;;5059313;28;20127;-82
2021/12/25 08:07:40;;;;;;;1.35;1.25;;;-5.20;99.90;;;;;;5059087;28;20059;-82
2021/12/25 08:10:18;;;;;;;1.48;1.38;;;-5.10;99.90;;;;;;5049227;28;20040;-83
2021/12/25 08:12:49;;;;;;;2.53;2.42;;;-5.10;99.90;;;;;;5044357;28;20052;-82
2021/12/25 08:15:17;;;;;;;1.10;1.10;;;-5.10;99.90;;;;;;5061594;28;20094;-81
2021/12/25 08:17:44;;;;;;;1.00;1.00;;;-5.10;99.90;;;;;;5053641;28;20037;-81
2021/12/25 08:20:10;;;;;;;1.40;1.30;;;-4.80;99.90;;;;;;5061081;28;20037;-82
2021/12/25 08:22:36;;;;;;;1.50;1.40;;;;;;;;;;5059653;28;20087;-81
2021/12/25 08:25:03;;;;;;;1.40;1.30;;;-5.10;99.90;;;;;;5076463;28;20072;-81
2021/12/25 08:27:28;;;;;;;1.50;1.40;;;-4.10;99.90;;;;;;5058466;28;20119;-82
2021/12/25 08:29:54;;;;;;;1.50;1.40;;;-5.10;99.90;;;;;;5075601;28;20098;-82
2021/12/25 08:32:20;;;;;;;1.35;1.25;;;-4.20;99.90;;;;;;5055507;28;20120;-81
2021/12/25 08:34:46;;;;;;;1.30;1.20;;;-5.00;99.90;;;;;;5057107;28;20393;-82
2021/12/25 08:37:12;;;;;;;1.40;1.30;;;-5.10;99.90;;;;;;5058435;28;20438;-81
2021/12/25 08:39:38;;;;;;;1.50;1.40;;;-5.00;99.90;;;;;;5061213;28;20063;-82
2021/12/25 08:42:05;;;;;;;1.38;1.27;;;-5.00;99.90;;;;;;5057067;28;20041;-82
2021/12/25 08:44:38;;;;;;;1.27;1.20;;;-4.90;99.90;;;;;;5060123;28;20049;-81
2021/12/25 08:47:06;;;;;;;3.55;3.15;;;-4.90;99.90;;;;;;5056381;28;20445;-82
2021/12/25 08:49:34;;;;;;;1.50;1.40;;;-4.90;99.90;;;;;;5055501;28;20041;-81
2021/12/25 08:52:22;;;;;;;1.30;1.20;;;-4.90;99.90;;;;;;5054519;28;20037;-81
2021/12/25 08:54:48;;;;;;;2.15;2.00;;;-4.20;99.90;;;;;;5058164;28;20060;-82
2021/12/25 08:57:15;;;;;;;1.60;1.50;;;-4.80;99.90;;;;;;5052591;28;20060;-81
2021/12/25 08:59:41;;;;;;;1.30;1.20;;;-4.70;99.90;;;;;;5054766;28;20049;-81
2021/12/25 09:02:12;;;;;;;1.33;1.23;;;-4.70;99.90;;;;;;5037409;28;20037;-81
2021/12/25 09:04:39;;;;;;;1.40;1.30;;;-4.70;99.90;;;;;;5058865;28;20055;-82
2021/12/25 09:07:05;;;;;;;1.30;1.20;;;-4.70;99.90;;;;;;5040034;28;20049;-81
2021/12/25 09:09:32;;;;;;;1.25;1.17;;;-4.60;99.90;;;;;;5059847;28;20041;-82
2021/12/25 09:11:57;;;;;;;1.70;1.60;;;-4.50;99.90;;;;;;5056268;28;20041;-82
2021/12/25 09:14:23;;;;;;;1.33;1.23;;;-4.50;99.90;;;;;;5074554;28;20049;-81
2021/12/25 09:16:49;;;;;;;1.50;1.40;;;-4.40;99.90;;;;;;5052935;28;20720;-81
2021/12/25 09:19:14;;;;;;;1.42;1.33;;;-4.40;99.90;;;;;;5048234;28;20065;-81
2021/12/25 09:21:40;;;;;;;1.50;1.40;;;-4.40;99.90;;;;;;5027194;28;20468;-81
2021/12/25 09:24:06;;;;;;;1.33;1.23;;;-4.40;99.90;;;;;;5054652;28;20041;-82
2021/12/25 09:26:32;;;;;;;1.52;1.40;;;-4.20;99.90;;;;;;5055463;28;20037;-81
2021/12/25 09:28:58;;;;;;;1.33;1.23;;;;;;;;;;5059731;28;20058;-81
2021/12/25 09:31:24;;;;;;;1.10;1.10;;;-4.20;99.90;;;;;;5059882;28;20061;-81
2021/12/25 09:33:52;;;;;;;1.30;1.20;;;-4.20;99.90;;;;;;5053868;28;20056;-81
2021/12/25 09:36:18;;;;;;;1.40;1.30;;;-4.20;99.90;;;;;;5058598;28;20067;-81
2021/12/25 09:38:44;;;;;;;1.30;1.20;;;-4.20;99.90;;;;;;5060625;28;20076;-81
2021/12/25 09:41:11;;;;;;;1.30;1.20;;;-4.20;99.90;;;;;;5058412;28;20037;-81
2021/12/25 09:43:39;;;;;;;1.30;1.20;;;-4.20;99.90;;;;;;5057711;28;20106;-81
2021/12/25 09:46:04;;;;;;;1.35;1.25;;;-4.20;99.90;;;;;;5057750;28;20053;-81
2021/12/25 09:48:30;;;;;;;1.02;1.02;;;-4.20;99.90;;;;;;5071142;28;20124;-81
2021/12/25 09:50:56;;;;;;;1.30;1.20;;;-4.10;99.90;;;;;;5056703;28;20049;-81
2021/12/25 09:53:22;;;;;;;1.40;1.30;;;-4.10;99.90;;;;;;5059295;28;20033;-82
2021/12/25 09:55:48;;;;;;;1.30;1.20;;;-4.00;99.90;;;;;;5043127;28;20044;-82
2021/12/25 09:58:14;;;;;;;1.30;1.20;;;-4.00;99.90;;;;;;5058825;28;20045;-81
2021/12/25 10:00:44;;;;;;;1.30;1.20;;;-4.00;99.90;;;;;;5059102;28;20049;-81
2021/12/25 10:03:09;;;;;;;1.00;1.00;;;-4.00;99.90;;;;;;5060377;28;20037;-82
2021/12/25 10:05:43;;;;;;;1.27;1.17;;;-4.00;99.90;;;;;;5059515;28;20088;-81
2021/12/25 10:08:13;;;;;;;1.40;1.30;;;-3.90;99.90;;;;;;5059623;28;20071;-81
2021/12/25 10:10:47;;;;;;;1.30;1.20;;;-3.80;99.90;;;;;;5057486;28;20076;-82
2021/12/25 10:13:22;;;;;;;1.13;1.10;;;-3.90;99.90;;;;;;5051989;28;20061;-81
2021/12/25 10:15:49;;;;;;;1.40;1.30;;;-3.80;99.90;;;;;;5057983;28;20033;-82
2021/12/25 10:18:15;;;;;;;1.30;1.20;;;-3.80;99.90;;;;;;5040961;28;20041;-82
2021/12/25 10:20:40;;;;;;;1.30;1.20;;;-3.80;99.90;;;;;;5058831;28;20059;-82
2021/12/25 10:23:12;;;;;;;1.25;1.15;;;-3.80;99.90;;;;;;5059310;28;20041;-82
2021/12/25 10:25:58;;;;;;;1.15;1.10;;;-3.60;99.90;;;;;;5059035;28;20057;-82
2021/12/25 10:28:33;;;;;;;5.65;5.15;;;-3.70;99.90;;;;;;5056717;28;20502;-82
2021/12/25 10:31:11;;;;;;;1.25;1.15;;;-3.60;99.90;;;;;;5041273;28;20048;-81
2021/12/25 10:33:53;;;;;;;1.10;1.10;;;-3.60;99.90;;;;;;5045515;28;20477;-82
2021/12/25 10:36:28;;;;;;;1.00;1.00;;;-3.60;99.90;;;;;;5046375;28;20052;-81
2021/12/25 10:39:09;;;;;;;1.30;1.20;;;-3.60;99.90;;;;;;5056621;28;20071;-82
2021/12/25 10:41:38;;;;;;;1.30;1.20;;;-3.50;99.90;;;;;;5037148;28;20088;-82
2021/12/25 10:44:17;;;;;;;1.30;1.20;;;-3.60;99.90;;;;;;5050556;28;20080;-82
2021/12/25 10:46:49;;;;;;;1.35;1.25;;;-3.50;99.90;;;;;;5040114;28;20041;-81
2021/12/25 10:49:15;;;;;;;1.30;1.20;;;-3.40;99.90;;;;;;5068285;28;20133;-82
2021/12/25 10:51:41;;;;;;;1.00;1.00;;;-3.40;99.90;;;;;;5057697;28;20067;-82
2021/12/25 10:54:10;;;;;;;1.38;1.27;;;-3.40;99.90;;;;;;5058546;28;20396;-82
2021/12/25 10:56:39;;;;;;;1.27;1.17;;;-3.30;99.90;;;;;;5063982;28;20045;-82
2021/12/25 10:59:11;;;;;;;1.40;1.30;;;-3.40;99.90;;;;;;5063525;28;20865;-82
2021/12/25 11:01:42;;;;;;;1.10;1.10;;;-3.30;99.90;;;;;;5056884;28;20685;-82
2021/12/25 11:04:30;;;;;;;0.90;0.90;;;-3.30;99.90;;;;;;5054726;28;20103;-82
2021/12/25 11:06:58;;;;;;;1.45;1.35;;;-3.20;99.90;;;;;;5045876;28;20036;-82
2021/12/25 11:09:24;;;;;;;1.17;1.13;;;-3.10;99.90;;;;;;5077023;28;20488;-82
2021/12/25 11:12:16;;;;;;;1.10;1.10;;;-3.10;99.90;;;;;;5061548;28;20041;-82
2021/12/25 11:14:43;;;;;;;1.30;1.20;;;-3.00;99.90;;;;;;5063905;28;20048;-82
2021/12/25 11:17:23;;;;;;;1.10;1.10;;;-3.10;99.90;;;;;;5061740;28;20048;-82
2021/12/25 11:20:00;;;;;;;1.30;1.20;;;-3.10;99.90;;;;;;5045118;28;20539;-82
2021/12/25 11:22:46;;;;;;;1.48;1.38;;;-3.00;99.90;;;;;;5061529;28;20075;-82
2021/12/25 11:25:12;;;;;;;1.20;1.10;;;-3.00;99.90;;;;;;5053386;28;20096;-82
2021/12/25 11:27:37;;;;;;;0.90;0.90;;;-3.00;99.90;;;;;;5036586;28;20064;-82
2021/12/25 11:30:05;;;;;;;1.27;1.17;;;-2.90;99.90;;;;;;5057704;28;20104;-82
2021/12/25 11:32:31;;;;;;;1.38;1.27;;;-2.80;99.90;;;;;;5054494;28;20041;-82
2021/12/25 11:35:00;;;;;;;1.75;1.65;;;-2.70;99.90;;;;;;5055497;28;20053;-81
2021/12/25 11:37:26;;;;;;;1.00;1.00;;;-2.80;99.90;;;;;;5052345;28;20056;-81
2021/12/25 11:39:53;;;;;;;1.38;1.27;;;-2.70;99.90;;;;;;5060275;28;20110;-81
2021/12/25 11:42:22;;;;;;;1.30;1.20;;;-2.80;99.90;;;;;;5058445;28;20041;-82
2021/12/25 11:44:54;;;;;;;1.00;1.00;;;-2.70;99.90;;;;;;5061481;28;20086;-82
2021/12/25 11:47:41;;;;;;;0.88;0.88;;;-2.70;99.90;;;;;;5041237;28;20056;-81
2021/12/25 11:50:12;;;;;;;1.33;1.23;;;-2.80;99.90;;;;;;5058171;28;20125;-81
2021/12/25 11:52:44;;;;;;;1.20;1.10;;;-2.70;99.90;;;;;;5042243;28;20052;-81
2021/12/25 11:55:32;;;;;;;1.30;1.20;;;-2.60;99.90;;;;;;5061087;28;20045;-81
2021/12/25 11:58:17;;;;;;;1.13;1.10;;;-2.60;99.90;;;;;;5061655;28;20066;-81
2021/12/25 12:00:50;;;;;;;1.30;1.20;;;-2.60;99.90;;;;;;5037327;28;20047;-81
2021/12/25 12:03:36;;;;;;;2.47;2.28;;;-2.60;99.90;;;;;;5061761;28;20096;-80
2021/12/25 12:06:01;;;;;;;1.17;1.13;;;-2.60;99.90;;;;;;5054690;28;20033;-81
2021/12/25 12:08:27;;;;;;;1.30;1.20;;;-2.60;99.90;;;;;;5067175;28;20044;-81
2021/12/25 12:10:56;;;;;;;1.13;1.10;;;-2.60;99.90;;;;;;5061645;28;20075;-81
2021/12/25 12:13:27;;;;;;;2.45;2.35;;;-2.60;99.90;;;;;;5054359;28;20077;-82
2021/12/25 12:15:56;;;;;;;1.00;1.00;;;-2.60;99.90;;;;;;5059535;28;20053;-81
2021/12/25 12:18:25;;;;;;;0.90;0.90;;;-2.60;99.90;;;;;;5057108;28;20091;-82
2021/12/25 12:20:52;;;;;;;1.30;1.20;;;-2.50;99.90;;;;;;5052004;28;20045;-81
2021/12/25 12:23:39;;;;;;;1.10;1.10;;;-2.50;99.90;;;;;;5056437;28;20037;-80
2021/12/25 12:26:11;;;;;;;1.25;1.15;;;-2.40;99.90;;;;;;5056097;28;20056;-80
2021/12/25 12:28:48;;;;;;;0.98;0.98;;;-2.40;99.90;;;;;;5053916;28;20046;-80
2021/12/25 12:31:40;;;;;;;1.20;1.10;;;-2.40;99.90;;;;;;5047271;28;20053;-80
2021/12/25 12:34:36;;;;;;;1.02;1.02;;;-2.50;99.90;;;;;;5028670;28;20089;-81
2021/12/25 12:37:13;;;;;;;1.13;1.10;;;-2.40;99.90;;;;;;5045353;28;20116;-81
2021/12/25 12:40:06;;;;;;;1.40;1.30;;;-2.40;99.90;;;;;;5046691;28;20076;-82
2021/12/25 12:42:48;;;;;;;1.15;1.13;;;-2.50;99.90;;;;;;5073267;28;20092;-83
2021/12/25 12:45:19;;;;;;;1.98;1.88;;;-2.40;99.90;;;;;;5054123;28;20127;-81
2021/12/25 12:48:09;;;;;;;1.33;1.23;;;-2.50;99.90;;;;;;5070105;28;20049;-82
2021/12/25 12:50:36;;;;;;;1.00;1.00;;;-2.40;99.90;;;;;;5058227;28;20147;-83
2021/12/25 12:53:06;;;;;;;1.10;1.10;;;-2.30;99.90;;;;;;5058536;28;20136;-83
2021/12/25 12:55:34;;;;;;;1.00;1.00;;;-2.40;99.90;;;;;;5060372;28;20041;-81
2021/12/25 12:58:28;;;;;;;1.40;1.30;;;-2.40;99.90;;;;;;5060385;28;20041;-83
2021/12/25 13:00:56;;;;;;;1.02;1.02;;;-2.40;99.90;;;;;;5055479;28;20584;-83
2021/12/25 13:03:24;;;;;;;1.00;1.00;;;-2.40;99.90;;;;;;5070362;28;20104;-83
2021/12/25 13:05:54;;;;;;;1.10;1.10;;;-2.40;99.90;;;;;;5056513;28;20071;-83
2021/12/25 13:08:29;;;;;;;1.30;1.20;;;-2.40;99.90;;;;;;5062531;28;20041;-83
2021/12/25 13:11:04;;;;;;;1.05;1.05;;;-2.40;99.90;;;;;;5042686;28;20041;-83
2021/12/25 13:13:37;;;;;;;1.55;1.45;;;-2.50;99.90;;;;;;5073165;28;20033;-83
2021/12/25 13:16:05;;;;;;;1.05;1.05;;;-2.50;99.90;;;;;;5052450;28;20033;-83
2021/12/25 13:18:45;;;;;;;1.10;1.10;;;-2.40;99.90;;;;;;5059218;28;20045;-83
2021/12/25 13:21:22;;;;;;;1.30;1.20;;;-2.40;99.90;;;;;;5051568;28;20048;-82
2021/12/25 13:23:52;;;;;;;1.10;1.10;;;-2.40;99.90;;;;;;5059240;28;20052;-83
2021/12/25 13:26:35;;;;;;;1.00;1.00;;;-2.40;99.90;;;;;;5056825;28;20040;-83
2021/12/25 13:29:03;;;;;;;1.00;1.00;;;-2.40;99.90;;;;;;5059126;28;20465;-83
2021/12/25 13:31:31;;;;;;;1.08;1.08;;;-2.40;99.90;;;;;;5057269;28;20101;-83
2021/12/25 13:34:07;;;;;;;1.63;1.52;;;-2.30;99.90;;;;;;5058224;28;20049;-83
2021/12/25 13:36:34;;;;;;;1.10;1.10;;;-2.40;99.90;;;;;;5066985;28;20029;-82
2021/12/25 13:39:09;;;;;;;1.50;1.40;;;-2.40;99.90;;;;;;5075100;28;20037;-83
2021/12/25 13:41:40;;;;;;;1.02;1.02;;;-2.40;99.90;;;;;;5059064;28;20124;-83
2021/12/25 13:44:12;;;;;;;1.10;1.10;;;-2.40;99.90;;;;;;5059810;28;20123;-83
2021/12/25 13:46:48;;;;;;;1.00;1.00;;;-2.40;99.90;;;;;;5055995;28;20041;-83
2021/12/25 13:49:32;;;;;;;1.08;1.08;;;-2.50;99.90;;;;;;5048382;28;20041;-83
2021/12/25 13:51:59;;;;;;;;;;;-2.40;99.90;;;;;;5056034;28;20121;-83
2021/12/25 13:54:25;;;;;;;1.10;1.10;;;-2.40;99.90;;;;;;5059577;28;20389;-83
2021/12/25 13:56:53;;;;;;;1.10;1.10;;;-2.40;99.90;;;;;;5054610;28;20040;-83
2021/12/25 13:59:19;;;;;;;1.00;1.00;;;-2.50;99.90;;;;;;5050571;28;20478;-83
2021/12/25 14:01:45;;;;;;;1.45;1.35;;;-2.50;99.90;;;;;;5056423;28;20037;-83
2021/12/25 14:04:12;;;;;;;1.30;1.20;;;-2.50;99.90;;;;;;5043234;28;20127;-83
2021/12/25 14:06:38;;;;;;;1.20;1.17;;;-2.50;99.90;;;;;;5059272;28;20091;-83
2021/12/25 14:09:05;;;;;;;1.00;1.00;;;-2.50;99.90;;;;;;5058030;28;20163;-83
2021/12/25 14:11:31;;;;;;;1.23;1.17;;;-2.50;99.90;;;;;;5058692;28;20140;-82
2021/12/25 14:13:57;;;;;;;1.02;1.02;;;-2.50;99.90;;;;;;5057879;28;20103;-83